Federal Oshima — VRVY8 — position and weather

sailwx.info

Track history (hours):
 
Tides and Currents Weather Stations Pressure Air Temp Water Temp Dewpoint Dewpoint Depression Visibility Wind Speed Wind Dir Waves Ship Positions

Federal Oshima

Last reported at 2015-Jul-07 18:33 UTC. Time now 2015-Jul-07 19:44 UTC.
Position N 50°33' E 000°22'.

Length 200 m; draft 8 m.

Type: Cargo ship. MMSI: 477675000.

Date/timePositionNaut miles runAvg speedWind from/ knotsBaromVisibWave heightAir tempDewpointWater temp
2015-Jul-07 18:33N 50°33' E 000°22'1111.1
2015-Jul-07 17:33N 50°36' E 000°39'1110.7
2015-Jul-07 16:33N 50°42' E 000°53'21 9.5
2015-Jul-07 14:21N 50°55' E 001°19'810.5
2015-Jul-07 13:33N 51°01' E 001°27'1313.1
2015-Jul-07 12:33N 51°11' E 001°42'1414.2
2015-Jul-07 11:33N 51°22' E 001°56'1110.8
2015-Jul-07 10:33N 51°21' E 002°13'1313.1
2015-Jul-07 09:33N 51°23' E 002°34'1212.4
2015-Jul-07 08:34N 51°23' E 002°54'1312.9
2015-Jul-07 07:33N 51°25' E 003°15'1313.3
2015-Jul-07 06:34N 51°26' E 003°36'1110.7
2015-Jul-07 05:33N 51°21' E 003°50'8 8.4
2015-Jul-07 04:34N 51°26' E 004°02'7 6.9
2015-Jul-07 03:33N 51°24' E 004°12'4 4.3
2015-Jul-07 02:34N 51°21' E 004°17'0 0.0
2015-Jul-07 01:34N 51°21' E 004°17'0 0.5
2015-Jul-07 00:33N 51°21' E 004°18'3 2.9
2015-Jul-06 23:33N 51°18' E 004°20'1 1.3
2015-Jul-06 22:33N 51°17' E 004°21'0 0.0
2015-Jul-06 21:32N 51°17' E 004°21'0 0.0
2015-Jul-06 20:32N 51°17' E 004°21'0 0.0
2015-Jul-06 19:32N 51°17' E 004°21'0 0.0
2015-Jul-06 18:29N 51°17' E 004°21'0 0.0
2015-Jul-06 17:32N 51°17' E 004°21'0 0.0
2015-Jul-06 16:32N 51°17' E 004°21'0 0.0
2015-Jul-06 15:32N 51°17' E 004°21'0 0.0
2015-Jul-06 14:32N 51°17' E 004°21'0 0.0
2015-Jul-06 13:32N 51°17' E 004°21'0 0.1
2015-Jul-06 12:32N 51°17' E 004°21'0 0.0
2015-Jul-06 11:32N 51°17' E 004°21'0 0.0
2015-Jul-06 10:32N 51°17' E 004°21'0 0.1
2015-Jul-06 09:32N 51°17' E 004°21'0 0.0
2015-Jul-06 08:32N 51°17' E 004°21'0 0.0
2015-Jul-06 07:32N 51°17' E 004°21'0 0.0
2015-Jul-06 06:32N 51°17' E 004°21'0 0.1
2015-Jul-06 05:32N 51°17' E 004°21'0 0.0
2015-Jul-06 04:32N 51°17' E 004°21'0 0.0
2015-Jul-06 03:32N 51°17' E 004°21'0 0.0
2015-Jul-06 02:32N 51°17' E 004°21'0 0.0
2015-Jul-06 01:29N 51°17' E 004°21'0 0.0
2015-Jul-06 00:32N 51°17' E 004°21'0 0.0
2015-Jul-05 23:32N 51°17' E 004°21'0 0.4
2015-Jul-05 22:33N 51°17' E 004°20'4 3.9
2015-Jul-05 21:33N 51°21' E 004°17'0 0.0
2015-Jul-05 20:33N 51°21' E 004°17'3 3.2
2015-Jul-05 19:33N 51°22' E 004°13'7 7.1
2015-Jul-05 18:33N 51°24' E 004°02'8 7.7
2015-Jul-05 17:33N 51°21' E 003°51'1110.6
2015-Jul-05 16:33N 51°26' E 003°36'1110.6
2015-Jul-05 15:33N 51°34' E 003°25'1312.5
2015-Jul-05 14:30N 51°44' E 003°12'1111.8
2015-Jul-05 13:32N 51°45' E 002°54'1 0.8
2015-Jul-05 12:10N 51°46' E 002°53'0 0.7
2015-Jul-05 11:33N 51°46' E 002°54'11 9.6
2015-Jul-05 10:26N 51°51' E 002°38'1213.4
2015-Jul-05 09:33N 52°00' E 002°48'1414.4
2015-Jul-05 08:33N 52°12' E 003°02'1413.5
2015-Jul-05 07:33N 52°23' E 003°15'1313.0
2015-Jul-05 06:33N 52°34' E 003°27'1212.5
2015-Jul-05 05:33N 52°44' E 003°39'1212.2
2015-Jul-05 04:32N 52°54' E 003°52'1312.7
2015-Jul-05 03:29N 53°02' E 004°09'1313.8
2015-Jul-05 02:33N 53°11' E 004°25'1514.7
2015-Jul-05 01:34N 53°24' E 004°34'1413.9
2015-Jul-05 00:33N 53°32' E 004°54'1414.0
2015-Jul-04 23:33N 53°37' E 005°16'1312.8
2015-Jul-04 22:33N 53°41' E 005°36'1212.4
2015-Jul-04 21:33N 53°44' E 005°56'1212.0
2015-Jul-04 20:33N 53°49' E 006°15'1212.4
2015-Jul-04 19:33N 53°52' E 006°36'1313.4
2015-Jul-04 18:33N 53°55' E 006°58'1414.5
2015-Jul-04 17:33N 53°58' E 007°22'1212.2
2015-Jul-04 16:33N 53°56' E 007°42'1313.1
2015-Jul-04 15:33N 53°51' E 008°03'1514.6
2015-Jul-04 14:33N 53°41' E 008°22'1211.7
2015-Jul-04 13:33N 53°32' E 008°34'9 8.8
2015-Jul-04 12:33N 53°24' E 008°30'2 2.2
2015-Jul-04 11:31N 53°21' E 008°30'0 0.0
2015-Jul-04 10:31N 53°21' E 008°30'0 0.0
2015-Jul-04 09:31N 53°21' E 008°30'0 0.0
2015-Jul-04 08:31N 53°21' E 008°30'0 0.0
2015-Jul-04 07:28N 53°21' E 008°30'0 0.0
2015-Jul-04 06:31N 53°21' E 008°30'0 0.0
2015-Jul-04 05:31N 53°21' E 008°30'0 0.0
2015-Jul-04 04:31N 53°21' E 008°30'0 0.0
2015-Jul-04 03:31N 53°21' E 008°30'0 0.0
2015-Jul-04 02:31N 53°21' E 008°30'0 0.0
2015-Jul-04 01:31N 53°21' E 008°30'0 0.0
2015-Jul-04 00:28N 53°21' E 008°30'0 0.0
2015-Jul-03 23:31N 53°21' E 008°30'0 0.0
2015-Jul-03 22:31N 53°21' E 008°30'0 0.0
2015-Jul-03 21:31N 53°21' E 008°30'0 0.0
2015-Jul-03 20:31N 53°21' E 008°30'0 0.0
2015-Jul-03 19:28N 53°21' E 008°30'0 0.0
2015-Jul-03 18:31N 53°21' E 008°30'0 0.0
2015-Jul-03 17:31N 53°21' E 008°30'0 0.0
2015-Jul-03 16:31N 53°21' E 008°30'0 0.0
2015-Jul-03 15:31N 53°21' E 008°30'0 0.0
2015-Jul-03 14:31N 53°21' E 008°30'0 0.0
2015-Jul-03 13:28N 53°21' E 008°30'0 0.0
2015-Jul-03 12:31N 53°21' E 008°30'0 0.0
2015-Jul-03 11:31N 53°21' E 008°30'0 0.0
2015-Jul-03 10:28N 53°21' E 008°30'0 0.0
2015-Jul-03 09:31N 53°21' E 008°30'0 0.0
2015-Jul-03 08:31N 53°21' E 008°30'0 0.0
2015-Jul-03 07:31N 53°21' E 008°30'0 0.0
2015-Jul-03 06:31N 53°21' E 008°30'0 0.0
2015-Jul-03 05:31N 53°21' E 008°30'0 0.0
2015-Jul-03 04:31N 53°21' E 008°30'0 0.0
2015-Jul-03 03:31N 53°21' E 008°30'0 0.0
2015-Jul-03 02:31N 53°21' E 008°30'0 0.0
2015-Jul-03 01:31N 53°21' E 008°30'0 0.1
2015-Jul-03 00:31N 53°21' E 008°30'0 0.0
2015-Jul-02 23:31N 53°21' E 008°30'0 0.0
2015-Jul-02 22:31N 53°21' E 008°30'0 0.0
2015-Jul-02 21:31N 53°21' E 008°30'0 0.0
2015-Jul-02 20:31N 53°21' E 008°30'0 0.0
2015-Jul-02 19:31N 53°21' E 008°30'0 0.0
2015-Jul-02 18:28N 53°21' E 008°30'0 0.0
2015-Jul-02 17:31N 53°21' E 008°30'0 0.0
2015-Jul-02 16:28N 53°21' E 008°30'0 0.0
2015-Jul-02 15:31N 53°21' E 008°30'0 0.0
2015-Jul-02 14:13N 53°21' E 008°30'0 0.0
2015-Jul-02 13:28N 53°21' E 008°30'0 0.0
2015-Jul-02 12:29N 53°21' E 008°30'0 0.0
2015-Jul-02 11:25N 53°21' E 008°30'0 0.0
2015-Jul-02 10:17N 53°21' E 008°30'0 0.1
2015-Jul-02 09:28N 53°21' E 008°30'0 0.0
2015-Jul-02 08:31N 53°21' E 008°30'0 0.0
2015-Jul-02 07:29N 53°21' E 008°30'0 0.1
2015-Jul-02 06:28N 53°21' E 008°30'0 0.0
2015-Jul-01 20:19N 53°21' E 008°30'0 0.0
2015-Jul-01 17:28N 53°21' E 008°30'0 0.0
2015-Jul-01 16:31N 53°21' E 008°30'0 0.0
2015-Jul-01 15:19N 53°21' E 008°30'0 0.0
2015-Jul-01 14:25N 53°21' E 008°30'0 0.0
2015-Jul-01 13:31N 53°21' E 008°30'0 0.0
2015-Jul-01 12:22N 53°21' E 008°30'0 0.0
2015-Jul-01 11:28N 53°21' E 008°30'0 0.0
2015-Jul-01 10:31N 53°21' E 008°30'0 0.0
2015-Jul-01 09:28N 53°21' E 008°30'1 1.2
2015-Jul-01 08:33N 53°22' E 008°30'7 6.9
2015-Jul-01 07:33N 53°29' E 008°30'7 6.9
2015-Jul-01 06:33N 53°36' E 008°30'1212.5
2015-Jul-01 05:33N 53°44' E 008°14'1312.9
2015-Jul-01 04:33N 53°52' E 007°56'10 8.4
2015-Jul-01 03:22N 53°56' E 007°41'5 6.5
2015-Jul-01 02:33N 54°01' E 007°40'9 9.5
2015-Jul-01 01:33N 54°01' E 007°56'1211.6
2015-Jul-01 00:34N 54°00' E 008°15'1514.8
2015-Jun-30 23:33N 53°56' E 008°40'1110.7
2015-Jun-30 22:33N 53°51' E 008°55'1010.0
2015-Jun-30 21:33N 53°53' E 009°12'1110.8
2015-Jun-30 20:34N 53°45' E 009°24'1313.1
2015-Jun-30 19:33N 53°35' E 009°38'1110.5
2015-Jun-30 18:33N 53°33' E 009°55'2 1.5
2015-Jun-30 17:28N 53°31' E 009°57'0 0.0
2015-Jun-30 16:31N 53°31' E 009°57'0 0.0
2015-Jun-30 15:28N 53°31' E 009°57'0 0.0
2015-Jun-30 14:31N 53°31' E 009°57'0 0.0
2015-Jun-30 13:31N 53°31' E 009°57'0 0.0
2015-Jun-30 12:28N 53°31' E 009°57'0 0.1
2015-Jun-30 11:28N 53°31' E 009°57'0 0.0
2015-Jun-30 10:31N 53°31' E 009°57'0 0.2
2015-Jun-30 09:28N 53°31' E 009°56'0 0.2
2015-Jun-30 08:31N 53°31' E 009°57'0 0.0
2015-Jun-30 07:25N 53°31' E 009°57'0 0.0
2015-Jun-30 06:26N 53°31' E 009°57'0 0.0
2015-Jun-30 04:33N 53°31' E 009°57'0 0.0
2015-Jun-30 03:26N 53°31' E 009°57'0 0.0
2015-Jun-30 02:32N 53°31' E 009°57'0 0.0
2015-Jun-30 01:31N 53°31' E 009°57'0 0.0
2015-Jun-30 00:28N 53°31' E 009°57'0 0.0
2015-Jun-29 23:28N 53°31' E 009°57'0 0.0
2015-Jun-29 22:31N 53°31' E 009°57'0 0.0
2015-Jun-29 21:31N 53°31' E 009°57'0 0.0
2015-Jun-29 20:28N 53°31' E 009°57'0 0.0
2015-Jun-29 19:31N 53°31' E 009°57'0 0.0
2015-Jun-29 18:25N 53°31' E 009°57'0 0.0
2015-Jun-29 17:28N 53°31' E 009°57'0 0.1
2015-Jun-29 16:22N 53°31' E 009°57'0 0.0
2015-Jun-29 15:28N 53°31' E 009°57'0 0.0
2015-Jun-29 14:28N 53°31' E 009°57'0 0.0
2015-Jun-29 13:28N 53°31' E 009°57'0 0.0
2015-Jun-29 12:25N 53°31' E 009°57'0 0.0
2015-Jun-29 11:31N 53°31' E 009°57'0 0.0
2015-Jun-29 10:31N 53°31' E 009°57'0 0.0
2015-Jun-29 09:31N 53°31' E 009°57'0 0.0
2015-Jun-29 05:32N 53°31' E 009°57'0 0.0
2015-Jun-29 04:06N 53°31' E 009°57'0 0.1
2015-Jun-29 03:24N 53°31' E 009°57'0 0.0
2015-Jun-29 02:29N 53°31' E 009°57'0 0.0
2015-Jun-29 01:31N 53°31' E 009°57'0 0.0
2015-Jun-29 00:31N 53°31' E 009°57'0 0.0
2015-Jun-28 23:31N 53°31' E 009°57'0 0.0
2015-Jun-28 22:31N 53°31' E 009°57'0 0.2
2015-Jun-28 21:33N 53°31' E 009°56'7 7.3
2015-Jun-28 20:33N 53°34' E 009°45'9 9.3
2015-Jun-28 19:33N 53°39' E 009°31'1110.8
2015-Jun-28 18:33N 53°48' E 009°23'1110.8
2015-Jun-28 17:33N 53°53' E 009°06'1211.7
2015-Jun-28 16:34N 53°51' E 008°47'1111.4
2015-Jun-28 15:33N 53°58' E 008°32'1212.1
2015-Jun-28 14:33N 53°60' E 008°11'4 1.2
2015-Jun-28 11:23N 54°03' E 008°07'0 0.0
2015-Jun-28 10:32N 54°03' E 008°07'0 0.0
2015-Jun-28 09:32N 54°03' E 008°07'0 0.2
2015-Jun-28 08:32N 54°03' E 008°08'0 0.0
2015-Jun-28 07:32N 54°03' E 008°08'0 0.0
2015-Jun-28 06:29N 54°03' E 008°08'0 0.0
2015-Jun-28 00:17N 54°03' E 008°07'  
Track history (hours):
 
Tides and Currents Weather Stations Pressure Air Temp Water Temp Dewpoint Dewpoint Depression Visibility Wind Speed Wind Dir Waves Ship Positions

Federal Oshima

Last reported at 2015-Jul-07 18:33 UTC. Time now 2015-Jul-07 19:44 UTC.
Position N 50°33' E 000°22'.

Length 200 m; draft 8 m.

Type: Cargo ship. MMSI: 477675000.

Date/timePositionNaut miles runAvg speedWind from/ knotsBaromVisibWave heightAir tempDewpointWater temp
2015-Jul-07 18:33N 50°33' E 000°22'1111.1
2015-Jul-07 17:33N 50°36' E 000°39'1110.7
2015-Jul-07 16:33N 50°42' E 000°53'21 9.5
2015-Jul-07 14:21N 50°55' E 001°19'810.5
2015-Jul-07 13:33N 51°01' E 001°27'1313.1
2015-Jul-07 12:33N 51°11' E 001°42'1414.2
2015-Jul-07 11:33N 51°22' E 001°56'1110.8
2015-Jul-07 10:33N 51°21' E 002°13'1313.1
2015-Jul-07 09:33N 51°23' E 002°34'1212.4
2015-Jul-07 08:34N 51°23' E 002°54'1312.9
2015-Jul-07 07:33N 51°25' E 003°15'1313.3
2015-Jul-07 06:34N 51°26' E 003°36'1110.7
2015-Jul-07 05:33N 51°21' E 003°50'8 8.4
2015-Jul-07 04:34N 51°26' E 004°02'7 6.9
2015-Jul-07 03:33N 51°24' E 004°12'4 4.3
2015-Jul-07 02:34N 51°21' E 004°17'0 0.0
2015-Jul-07 01:34N 51°21' E 004°17'0 0.5
2015-Jul-07 00:33N 51°21' E 004°18'3 2.9
2015-Jul-06 23:33N 51°18' E 004°20'1 1.3
2015-Jul-06 22:33N 51°17' E 004°21'0 0.0
2015-Jul-06 21:32N 51°17' E 004°21'0 0.0
2015-Jul-06 20:32N 51°17' E 004°21'0 0.0
2015-Jul-06 19:32N 51°17' E 004°21'0 0.0
2015-Jul-06 18:29N 51°17' E 004°21'0 0.0
2015-Jul-06 17:32N 51°17' E 004°21'0 0.0
2015-Jul-06 16:32N 51°17' E 004°21'0 0.0
2015-Jul-06 15:32N 51°17' E 004°21'0 0.0
2015-Jul-06 14:32N 51°17' E 004°21'0 0.0
2015-Jul-06 13:32N 51°17' E 004°21'0 0.1
2015-Jul-06 12:32N 51°17' E 004°21'0 0.0
2015-Jul-06 11:32N 51°17' E 004°21'0 0.0
2015-Jul-06 10:32N 51°17' E 004°21'0 0.1
2015-Jul-06 09:32N 51°17' E 004°21'0 0.0
2015-Jul-06 08:32N 51°17' E 004°21'0 0.0
2015-Jul-06 07:32N 51°17' E 004°21'0 0.0
2015-Jul-06 06:32N 51°17' E 004°21'0 0.1
2015-Jul-06 05:32N 51°17' E 004°21'0 0.0
2015-Jul-06 04:32N 51°17' E 004°21'0 0.0
2015-Jul-06 03:32N 51°17' E 004°21'0 0.0
2015-Jul-06 02:32N 51°17' E 004°21'0 0.0
2015-Jul-06 01:29N 51°17' E 004°21'0 0.0
2015-Jul-06 00:32N 51°17' E 004°21'0 0.0
2015-Jul-05 23:32N 51°17' E 004°21'0 0.4
2015-Jul-05 22:33N 51°17' E 004°20'4 3.9
2015-Jul-05 21:33N 51°21' E 004°17'0 0.0
2015-Jul-05 20:33N 51°21' E 004°17'3 3.2
2015-Jul-05 19:33N 51°22' E 004°13'7 7.1
2015-Jul-05 18:33N 51°24' E 004°02'8 7.7
2015-Jul-05 17:33N 51°21' E 003°51'1110.6
2015-Jul-05 16:33N 51°26' E 003°36'1110.6
2015-Jul-05 15:33N 51°34' E 003°25'1312.5
2015-Jul-05 14:30N 51°44' E 003°12'1111.8
2015-Jul-05 13:32N 51°45' E 002°54'1 0.8
2015-Jul-05 12:10N 51°46' E 002°53'0 0.7
2015-Jul-05 11:33N 51°46' E 002°54'11 9.6
2015-Jul-05 10:26N 51°51' E 002°38'1213.4
2015-Jul-05 09:33N 52°00' E 002°48'1414.4
2015-Jul-05 08:33N 52°12' E 003°02'1413.5
2015-Jul-05 07:33N 52°23' E 003°15'1313.0
2015-Jul-05 06:33N 52°34' E 003°27'1212.5
2015-Jul-05 05:33N 52°44' E 003°39'1212.2
2015-Jul-05 04:32N 52°54' E 003°52'1312.7
2015-Jul-05 03:29N 53°02' E 004°09'1313.8
2015-Jul-05 02:33N 53°11' E 004°25'1514.7
2015-Jul-05 01:34N 53°24' E 004°34'1413.9
2015-Jul-05 00:33N 53°32' E 004°54'1414.0
2015-Jul-04 23:33N 53°37' E 005°16'1312.8
2015-Jul-04 22:33N 53°41' E 005°36'1212.4
2015-Jul-04 21:33N 53°44' E 005°56'1212.0
2015-Jul-04 20:33N 53°49' E 006°15'1212.4
2015-Jul-04 19:33N 53°52' E 006°36'1313.4
2015-Jul-04 18:33N 53°55' E 006°58'1414.5
2015-Jul-04 17:33N 53°58' E 007°22'1212.2
2015-Jul-04 16:33N 53°56' E 007°42'1313.1
2015-Jul-04 15:33N 53°51' E 008°03'1514.6
2015-Jul-04 14:33N 53°41' E 008°22'1211.7
2015-Jul-04 13:33N 53°32' E 008°34'9 8.8
2015-Jul-04 12:33N 53°24' E 008°30'2 2.2
2015-Jul-04 11:31N 53°21' E 008°30'0 0.0
2015-Jul-04 10:31N 53°21' E 008°30'0 0.0
2015-Jul-04 09:31N 53°21' E 008°30'0 0.0
2015-Jul-04 08:31N 53°21' E 008°30'0 0.0
2015-Jul-04 07:28N 53°21' E 008°30'0 0.0
2015-Jul-04 06:31N 53°21' E 008°30'0 0.0
2015-Jul-04 05:31N 53°21' E 008°30'0 0.0
2015-Jul-04 04:31N 53°21' E 008°30'0 0.0
2015-Jul-04 03:31N 53°21' E 008°30'0 0.0
2015-Jul-04 02:31N 53°21' E 008°30'0 0.0
2015-Jul-04 01:31N 53°21' E 008°30'0 0.0
2015-Jul-04 00:28N 53°21' E 008°30'0 0.0
2015-Jul-03 23:31N 53°21' E 008°30'0 0.0
2015-Jul-03 22:31N 53°21' E 008°30'0 0.0
2015-Jul-03 21:31N 53°21' E 008°30'0 0.0
2015-Jul-03 20:31N 53°21' E 008°30'0 0.0
2015-Jul-03 19:28N 53°21' E 008°30'0 0.0
2015-Jul-03 18:31N 53°21' E 008°30'0 0.0
2015-Jul-03 17:31N 53°21' E 008°30'0 0.0
2015-Jul-03 16:31N 53°21' E 008°30'0 0.0
2015-Jul-03 15:31N 53°21' E 008°30'0 0.0
2015-Jul-03 14:31N 53°21' E 008°30'0 0.0
2015-Jul-03 13:28N 53°21' E 008°30'0 0.0
2015-Jul-03 12:31N 53°21' E 008°30'0 0.0
2015-Jul-03 11:31N 53°21' E 008°30'0 0.0
2015-Jul-03 10:28N 53°21' E 008°30'0 0.0
2015-Jul-03 09:31N 53°21' E 008°30'0 0.0
2015-Jul-03 08:31N 53°21' E 008°30'0 0.0
2015-Jul-03 07:31N 53°21' E 008°30'0 0.0
2015-Jul-03 06:31N 53°21' E 008°30'0 0.0
2015-Jul-03 05:31N 53°21' E 008°30'0 0.0
2015-Jul-03 04:31N 53°21' E 008°30'0 0.0
2015-Jul-03 03:31N 53°21' E 008°30'0 0.0
2015-Jul-03 02:31N 53°21' E 008°30'0 0.0
2015-Jul-03 01:31N 53°21' E 008°30'0 0.1
2015-Jul-03 00:31N 53°21' E 008°30'0 0.0
2015-Jul-02 23:31N 53°21' E 008°30'0 0.0
2015-Jul-02 22:31N 53°21' E 008°30'0 0.0
2015-Jul-02 21:31N 53°21' E 008°30'0 0.0
2015-Jul-02 20:31N 53°21' E 008°30'0 0.0
2015-Jul-02 19:31N 53°21' E 008°30'0 0.0
2015-Jul-02 18:28N 53°21' E 008°30'0 0.0
2015-Jul-02 17:31N 53°21' E 008°30'0 0.0
2015-Jul-02 16:28N 53°21' E 008°30'0 0.0
2015-Jul-02 15:31N 53°21' E 008°30'0 0.0
2015-Jul-02 14:13N 53°21' E 008°30'0 0.0
2015-Jul-02 13:28N 53°21' E 008°30'0 0.0
2015-Jul-02 12:29N 53°21' E 008°30'0 0.0
2015-Jul-02 11:25N 53°21' E 008°30'0 0.0
2015-Jul-02 10:17N 53°21' E 008°30'0 0.1
2015-Jul-02 09:28N 53°21' E 008°30'0 0.0
2015-Jul-02 08:31N 53°21' E 008°30'0 0.0
2015-Jul-02 07:29N 53°21' E 008°30'0 0.1
2015-Jul-02 06:28N 53°21' E 008°30'0 0.0
2015-Jul-01 20:19N 53°21' E 008°30'0 0.0
2015-Jul-01 17:28N 53°21' E 008°30'0 0.0
2015-Jul-01 16:31N 53°21' E 008°30'0 0.0
2015-Jul-01 15:19N 53°21' E 008°30'0 0.0
2015-Jul-01 14:25N 53°21' E 008°30'0 0.0
2015-Jul-01 13:31N 53°21' E 008°30'0 0.0
2015-Jul-01 12:22N 53°21' E 008°30'0 0.0
2015-Jul-01 11:28N 53°21' E 008°30'0 0.0
2015-Jul-01 10:31N 53°21' E 008°30'0 0.0
2015-Jul-01 09:28N 53°21' E 008°30'1 1.2
2015-Jul-01 08:33N 53°22' E 008°30'7 6.9
2015-Jul-01 07:33N 53°29' E 008°30'7 6.9
2015-Jul-01 06:33N 53°36' E 008°30'1212.5
2015-Jul-01 05:33N 53°44' E 008°14'1312.9
2015-Jul-01 04:33N 53°52' E 007°56'10 8.4
2015-Jul-01 03:22N 53°56' E 007°41'5 6.5
2015-Jul-01 02:33N 54°01' E 007°40'9 9.5
2015-Jul-01 01:33N 54°01' E 007°56'1211.6
2015-Jul-01 00:34N 54°00' E 008°15'1514.8
2015-Jun-30 23:33N 53°56' E 008°40'1110.7
2015-Jun-30 22:33N 53°51' E 008°55'1010.0
2015-Jun-30 21:33N 53°53' E 009°12'1110.8
2015-Jun-30 20:34N 53°45' E 009°24'1313.1
2015-Jun-30 19:33N 53°35' E 009°38'1110.5
2015-Jun-30 18:33N 53°33' E 009°55'2 1.5
2015-Jun-30 17:28N 53°31' E 009°57'0 0.0
2015-Jun-30 16:31N 53°31' E 009°57'0 0.0
2015-Jun-30 15:28N 53°31' E 009°57'0 0.0
2015-Jun-30 14:31N 53°31' E 009°57'0 0.0
2015-Jun-30 13:31N 53°31' E 009°57'0 0.0
2015-Jun-30 12:28N 53°31' E 009°57'0 0.1
2015-Jun-30 11:28N 53°31' E 009°57'0 0.0
2015-Jun-30 10:31N 53°31' E 009°57'0 0.2
2015-Jun-30 09:28N 53°31' E 009°56'0 0.2
2015-Jun-30 08:31N 53°31' E 009°57'0 0.0
2015-Jun-30 07:25N 53°31' E 009°57'0 0.0
2015-Jun-30 06:26N 53°31' E 009°57'0 0.0
2015-Jun-30 04:33N 53°31' E 009°57'0 0.0
2015-Jun-30 03:26N 53°31' E 009°57'0 0.0
2015-Jun-30 02:32N 53°31' E 009°57'0 0.0
2015-Jun-30 01:31N 53°31' E 009°57'0 0.0
2015-Jun-30 00:28N 53°31' E 009°57'0 0.0
2015-Jun-29 23:28N 53°31' E 009°57'0 0.0
2015-Jun-29 22:31N 53°31' E 009°57'0 0.0
2015-Jun-29 21:31N 53°31' E 009°57'0 0.0
2015-Jun-29 20:28N 53°31' E 009°57'0 0.0
2015-Jun-29 19:31N 53°31' E 009°57'0 0.0
2015-Jun-29 18:25N 53°31' E 009°57'0 0.0
2015-Jun-29 17:28N 53°31' E 009°57'0 0.1
2015-Jun-29 16:22N 53°31' E 009°57'0 0.0
2015-Jun-29 15:28N 53°31' E 009°57'0 0.0
2015-Jun-29 14:28N 53°31' E 009°57'0 0.0
2015-Jun-29 13:28N 53°31' E 009°57'0 0.0
2015-Jun-29 12:25N 53°31' E 009°57'0 0.0
2015-Jun-29 11:31N 53°31' E 009°57'0 0.0
2015-Jun-29 10:31N 53°31' E 009°57'0 0.0
2015-Jun-29 09:31N 53°31' E 009°57'0 0.0
2015-Jun-29 05:32N 53°31' E 009°57'0 0.0
2015-Jun-29 04:06N 53°31' E 009°57'0 0.1
2015-Jun-29 03:24N 53°31' E 009°57'0 0.0
2015-Jun-29 02:29N 53°31' E 009°57'0 0.0
2015-Jun-29 01:31N 53°31' E 009°57'0 0.0
2015-Jun-29 00:31N 53°31' E 009°57'0 0.0
2015-Jun-28 23:31N 53°31' E 009°57'0 0.0
2015-Jun-28 22:31N 53°31' E 009°57'0 0.2
2015-Jun-28 21:33N 53°31' E 009°56'7 7.3
2015-Jun-28 20:33N 53°34' E 009°45'9 9.3
2015-Jun-28 19:33N 53°39' E 009°31'1110.8
2015-Jun-28 18:33N 53°48' E 009°23'1110.8
2015-Jun-28 17:33N 53°53' E 009°06'1211.7
2015-Jun-28 16:34N 53°51' E 008°47'1111.4
2015-Jun-28 15:33N 53°58' E 008°32'1212.1
2015-Jun-28 14:33N 53°60' E 008°11'4 1.2
2015-Jun-28 11:23N 54°03' E 008°07'0 0.0
2015-Jun-28 10:32N 54°03' E 008°07'0 0.0
2015-Jun-28 09:32N 54°03' E 008°07'0 0.2
2015-Jun-28 08:32N 54°03' E 008°08'0 0.0
2015-Jun-28 07:32N 54°03' E 008°08'0 0.0
2015-Jun-28 06:29N 54°03' E 008°08'0 0.0
2015-Jun-28 00:17N 54°03' E 008°07'  

Dump ship's entire track history